sensor_id;sensor_type;location;lat;lon;timestamp;temperature;humidity
25554;DHT22;13446;50.926;5.332;2023-04-06T00:01:10;8.00;99.00
25554;DHT22;13446;50.926;5.332;2023-04-06T00:03:35;8.00;99.00
25554;DHT22;13446;50.926;5.332;2023-04-06T00:06:01;8.30;98.10
25554;DHT22;13446;50.926;5.332;2023-04-06T00:08:27;8.30;97.70
25554;DHT22;13446;50.926;5.332;2023-04-06T00:10:52;8.20;98.40
25554;DHT22;13446;50.926;5.332;2023-04-06T00:13:18;8.00;99.50
25554;DHT22;13446;50.926;5.332;2023-04-06T00:15:43;7.80;99.90
25554;DHT22;13446;50.926;5.332;2023-04-06T00:18:09;7.50;99.90
25554;DHT22;13446;50.926;5.332;2023-04-06T00:20:34;7.60;99.90
25554;DHT22;13446;50.926;5.332;2023-04-06T00:23:00;7.80;99.90
25554;DHT22;13446;50.926;5.332;2023-04-06T00:25:26;7.50;99.90
25554;DHT22;13446;50.926;5.332;2023-04-06T00:27:51;7.30;99.90
25554;DHT22;13446;50.926;5.332;2023-04-06T00:30:17;7.20;99.90
25554;DHT22;13446;50.926;5.332;2023-04-06T00:32:42;7.20;99.90
25554;DHT22;13446;50.926;5.332;2023-04-06T00:35:08;7.10;99.90
25554;DHT22;13446;50.926;5.332;2023-04-06T00:37:34;7.10;99.90
25554;DHT22;13446;50.926;5.332;2023-04-06T00:39:59;6.90;99.90
25554;DHT22;13446;50.926;5.332;2023-04-06T00:42:25;7.00;99.90
25554;DHT22;13446;50.926;5.332;2023-04-06T00:44:56;7.00;99.90
25554;DHT22;13446;50.926;5.332;2023-04-06T00:47:22;7.10;99.90
25554;DHT22;13446;50.926;5.332;2023-04-06T00:49:48;6.80;99.90
25554;DHT22;13446;50.926;5.332;2023-04-06T00:52:14;6.80;99.90
25554;DHT22;13446;50.926;5.332;2023-04-06T00:54:40;6.80;99.90
25554;DHT22;13446;50.926;5.332;2023-04-06T00:57:05;6.60;99.90
25554;DHT22;13446;50.926;5.332;2023-04-06T00:59:32;6.60;99.90
25554;DHT22;13446;50.926;5.332;2023-04-06T01:01:58;6.60;99.90
25554;DHT22;13446;50.926;5.332;2023-04-06T01:04:23;6.60;99.90
25554;DHT22;13446;50.926;5.332;2023-04-06T01:06:49;6.50;99.90
25554;DHT22;13446;50.926;5.332;2023-04-06T01:09:15;6.60;99.90
25554;DHT22;13446;50.926;5.332;2023-04-06T01:11:41;6.50;99.90
25554;DHT22;13446;50.926;5.332;2023-04-06T01:14:06;6.50;99.90
25554;DHT22;13446;50.926;5.332;2023-04-06T01:16:32;6.40;99.90
25554;DHT22;13446;50.926;5.332;2023-04-06T01:18:58;6.50;99.90
25554;DHT22;13446;50.926;5.332;2023-04-06T01:21:23;6.40;99.90
25554;DHT22;13446;50.926;5.332;2023-04-06T01:23:50;6.30;99.90
25554;DHT22;13446;50.926;5.332;2023-04-06T01:26:16;6.20;99.90
25554;DHT22;13446;50.926;5.332;2023-04-06T01:28:41;6.00;99.90
25554;DHT22;13446;50.926;5.332;2023-04-06T01:31:08;6.00;99.90
25554;DHT22;13446;50.926;5.332;2023-04-06T01:33:34;6.20;99.90
25554;DHT22;13446;50.926;5.332;2023-04-06T01:36:00;6.40;99.90
25554;DHT22;13446;50.926;5.332;2023-04-06T01:38:25;6.60;99.90
25554;DHT22;13446;50.926;5.332;2023-04-06T01:40:51;6.50;99.90
25554;DHT22;13446;50.926;5.332;2023-04-06T01:43:17;6.30;99.90
25554;DHT22;13446;50.926;5.332;2023-04-06T01:45:43;6.20;99.90
25554;DHT22;13446;50.926;5.332;2023-04-06T01:48:08;6.30;99.90
25554;DHT22;13446;50.926;5.332;2023-04-06T01:50:34;6.50;99.90
25554;DHT22;13446;50.926;5.332;2023-04-06T01:52:59;6.50;99.90
25554;DHT22;13446;50.926;5.332;2023-04-06T01:55:25;6.50;99.90
25554;DHT22;13446;50.926;5.332;2023-04-06T01:57:51;6.40;99.90
25554;DHT22;13446;50.926;5.332;2023-04-06T02:00:16;6.20;99.90
25554;DHT22;13446;50.926;5.332;2023-04-06T02:02:42;6.10;99.90
25554;DHT22;13446;50.926;5.332;2023-04-06T02:05:08;6.10;99.90
25554;DHT22;13446;50.926;5.332;2023-04-06T02:07:33;6.10;99.90
25554;DHT22;13446;50.926;5.332;2023-04-06T02:09:59;6.20;99.90
25554;DHT22;13446;50.926;5.332;2023-04-06T02:12:25;6.30;99.90
25554;DHT22;13446;50.926;5.332;2023-04-06T02:14:50;6.40;99.90
25554;DHT22;13446;50.926;5.332;2023-04-06T02:17:16;6.40;99.90
25554;DHT22;13446;50.926;5.332;2023-04-06T02:19:42;6.50;99.90
25554;DHT22;13446;50.926;5.332;2023-04-06T02:22:07;6.40;99.90
25554;DHT22;13446;50.926;5.332;2023-04-06T02:24:33;6.30;99.90
25554;DHT22;13446;50.926;5.332;2023-04-06T02:26:58;6.20;99.90
25554;DHT22;13446;50.926;5.332;2023-04-06T02:29:25;6.30;99.90
25554;DHT22;13446;50.926;5.332;2023-04-06T02:31:50;6.30;99.90
25554;DHT22;13446;50.926;5.332;2023-04-06T02:34:16;6.40;99.90
25554;DHT22;13446;50.926;5.332;2023-04-06T02:36:44;6.50;99.90
25554;DHT22;13446;50.926;5.332;2023-04-06T02:39:10;6.50;99.90
25554;DHT22;13446;50.926;5.332;2023-04-06T02:41:36;6.30;99.90
25554;DHT22;13446;50.926;5.332;2023-04-06T02:44:02;6.40;99.90
25554;DHT22;13446;50.926;5.332;2023-04-06T02:46:28;6.50;99.90
25554;DHT22;13446;50.926;5.332;2023-04-06T02:48:53;6.50;99.90
25554;DHT22;13446;50.926;5.332;2023-04-06T02:51:19;6.50;99.90
25554;DHT22;13446;50.926;5.332;2023-04-06T02:53:44;6.60;99.90
25554;DHT22;13446;50.926;5.332;2023-04-06T02:56:10;6.50;99.90
25554;DHT22;13446;50.926;5.332;2023-04-06T02:58:35;6.20;99.90
25554;DHT22;13446;50.926;5.332;2023-04-06T03:01:02;6.30;99.90
25554;DHT22;13446;50.926;5.332;2023-04-06T03:03:28;6.40;99.90
25554;DHT22;13446;50.926;5.332;2023-04-06T03:05:53;6.40;99.90
25554;DHT22;13446;50.926;5.332;2023-04-06T03:08:21;6.60;99.90
25554;DHT22;13446;50.926;5.332;2023-04-06T03:10:47;6.60;99.90
25554;DHT22;13446;50.926;5.332;2023-04-06T03:13:12;6.50;99.90
25554;DHT22;13446;50.926;5.332;2023-04-06T03:15:38;6.50;99.90
25554;DHT22;13446;50.926;5.332;2023-04-06T03:18:03;6.40;99.90
25554;DHT22;13446;50.926;5.332;2023-04-06T03:20:29;6.30;99.90
25554;DHT22;13446;50.926;5.332;2023-04-06T03:22:54;6.30;99.90
25554;DHT22;13446;50.926;5.332;2023-04-06T03:25:20;6.40;99.90
25554;DHT22;13446;50.926;5.332;2023-04-06T03:27:46;6.40;99.90
25554;DHT22;13446;50.926;5.332;2023-04-06T03:30:12;6.60;99.90
25554;DHT22;13446;50.926;5.332;2023-04-06T03:32:37;6.70;99.90
25554;DHT22;13446;50.926;5.332;2023-04-06T03:35:03;6.70;99.90
25554;DHT22;13446;50.926;5.332;2023-04-06T03:37:28;6.60;99.90
25554;DHT22;13446;50.926;5.332;2023-04-06T03:39:54;6.60;99.90
25554;DHT22;13446;50.926;5.332;2023-04-06T03:42:20;6.30;99.90
25554;DHT22;13446;50.926;5.332;2023-04-06T03:44:45;6.30;99.90
25554;DHT22;13446;50.926;5.332;2023-04-06T03:47:11;6.20;99.90
25554;DHT22;13446;50.926;5.332;2023-04-06T03:49:36;6.20;99.90
25554;DHT22;13446;50.926;5.332;2023-04-06T03:52:02;6.20;99.90
25554;DHT22;13446;50.926;5.332;2023-04-06T03:54:27;6.20;99.90
25554;DHT22;13446;50.926;5.332;2023-04-06T03:56:53;6.20;99.90
25554;DHT22;13446;50.926;5.332;2023-04-06T03:59:18;6.30;99.90
25554;DHT22;13446;50.926;5.332;2023-04-06T04:01:44;6.30;99.90
25554;DHT22;13446;50.926;5.332;2023-04-06T04:04:10;6.30;99.90
25554;DHT22;13446;50.926;5.332;2023-04-06T04:06:35;6.30;99.90
25554;DHT22;13446;50.926;5.332;2023-04-06T04:09:02;6.30;99.90
25554;DHT22;13446;50.926;5.332;2023-04-06T04:11:28;6.30;99.90
25554;DHT22;13446;50.926;5.332;2023-04-06T04:13:54;6.30;99.90
25554;DHT22;13446;50.926;5.332;2023-04-06T04:16:19;6.30;99.90
25554;DHT22;13446;50.926;5.332;2023-04-06T04:18:45;6.30;99.90
25554;DHT22;13446;50.926;5.332;2023-04-06T04:21:12;6.40;99.90
25554;DHT22;13446;50.926;5.332;2023-04-06T04:23:38;6.40;99.90
25554;DHT22;13446;50.926;5.332;2023-04-06T04:26:03;6.40;99.90
25554;DHT22;13446;50.926;5.332;2023-04-06T04:28:29;6.50;99.90
25554;DHT22;13446;50.926;5.332;2023-04-06T04:30:55;6.50;99.90
25554;DHT22;13446;50.926;5.332;2023-04-06T04:33:20;6.60;99.90
25554;DHT22;13446;50.926;5.332;2023-04-06T04:35:46;6.70;99.90
25554;DHT22;13446;50.926;5.332;2023-04-06T04:38:11;6.70;99.90
25554;DHT22;13446;50.926;5.332;2023-04-06T04:40:37;6.60;99.90
25554;DHT22;13446;50.926;5.332;2023-04-06T04:43:03;6.70;99.90
25554;DHT22;13446;50.926;5.332;2023-04-06T04:45:28;6.70;99.90
25554;DHT22;13446;50.926;5.332;2023-04-06T04:47:54;6.70;99.90
25554;DHT22;13446;50.926;5.332;2023-04-06T04:50:20;6.60;99.90
25554;DHT22;13446;50.926;5.332;2023-04-06T04:52:45;6.50;99.90
25554;DHT22;13446;50.926;5.332;2023-04-06T04:55:11;6.50;99.90
25554;DHT22;13446;50.926;5.332;2023-04-06T04:57:36;6.60;99.90
25554;DHT22;13446;50.926;5.332;2023-04-06T05:00:02;6.80;99.90
25554;DHT22;13446;50.926;5.332;2023-04-06T05:02:28;6.80;99.90
25554;DHT22;13446;50.926;5.332;2023-04-06T05:04:53;6.80;99.90
25554;DHT22;13446;50.926;5.332;2023-04-06T05:07:19;6.80;99.90
25554;DHT22;13446;50.926;5.332;2023-04-06T05:09:46;7.10;99.90
25554;DHT22;13446;50.926;5.332;2023-04-06T05:12:11;7.00;99.90
25554;DHT22;13446;50.926;5.332;2023-04-06T05:14:37;7.00;99.90
25554;DHT22;13446;50.926;5.332;2023-04-06T05:17:02;6.90;99.90
25554;DHT22;13446;50.926;5.332;2023-04-06T05:19:29;6.90;99.90
25554;DHT22;13446;50.926;5.332;2023-04-06T05:21:54;6.90;99.90
25554;DHT22;13446;50.926;5.332;2023-04-06T05:24:20;7.00;99.90
25554;DHT22;13446;50.926;5.332;2023-04-06T05:26:46;7.10;99.90
25554;DHT22;13446;50.926;5.332;2023-04-06T05:29:11;7.00;99.90
25554;DHT22;13446;50.926;5.332;2023-04-06T05:31:37;7.00;99.90
25554;DHT22;13446;50.926;5.332;2023-04-06T05:34:03;7.00;99.90
25554;DHT22;13446;50.926;5.332;2023-04-06T05:36:28;7.00;99.90
25554;DHT22;13446;50.926;5.332;2023-04-06T05:38:54;7.00;99.90
25554;DHT22;13446;50.926;5.332;2023-04-06T05:41:21;7.00;99.90
25554;DHT22;13446;50.926;5.332;2023-04-06T05:43:46;7.20;99.90
25554;DHT22;13446;50.926;5.332;2023-04-06T05:46:12;7.20;99.90
25554;DHT22;13446;50.926;5.332;2023-04-06T05:48:38;7.30;99.90
25554;DHT22;13446;50.926;5.332;2023-04-06T05:51:03;7.40;99.90
25554;DHT22;13446;50.926;5.332;2023-04-06T05:53:31;7.30;99.90
25554;DHT22;13446;50.926;5.332;2023-04-06T05:56:00;7.40;99.90
25554;DHT22;13446;50.926;5.332;2023-04-06T05:58:25;7.40;99.90
25554;DHT22;13446;50.926;5.332;2023-04-06T06:00:55;7.50;99.90
25554;DHT22;13446;50.926;5.332;2023-04-06T06:03:22;7.60;99.90
25554;DHT22;13446;50.926;5.332;2023-04-06T06:05:48;7.70;99.90
25554;DHT22;13446;50.926;5.332;2023-04-06T06:08:13;7.80;99.90
25554;DHT22;13446;50.926;5.332;2023-04-06T06:10:39;7.70;99.90
25554;DHT22;13446;50.926;5.332;2023-04-06T06:13:05;8.00;99.90
25554;DHT22;13446;50.926;5.332;2023-04-06T06:15:31;8.10;99.90
25554;DHT22;13446;50.926;5.332;2023-04-06T06:17:56;8.20;99.90
25554;DHT22;13446;50.926;5.332;2023-04-06T06:20:22;8.10;99.90
25554;DHT22;13446;50.926;5.332;2023-04-06T06:22:48;8.00;99.90
25554;DHT22;13446;50.926;5.332;2023-04-06T06:25:13;8.00;99.90
25554;DHT22;13446;50.926;5.332;2023-04-06T06:27:39;8.10;99.90
25554;DHT22;13446;50.926;5.332;2023-04-06T06:30:04;8.20;99.90
25554;DHT22;13446;50.926;5.332;2023-04-06T06:32:30;8.20;99.90
25554;DHT22;13446;50.926;5.332;2023-04-06T06:34:56;8.50;99.90
25554;DHT22;13446;50.926;5.332;2023-04-06T06:37:21;8.50;99.90
25554;DHT22;13446;50.926;5.332;2023-04-06T06:39:47;8.40;99.90
25554;DHT22;13446;50.926;5.332;2023-04-06T06:42:12;8.60;99.90
25554;DHT22;13446;50.926;5.332;2023-04-06T06:44:38;8.60;99.90
25554;DHT22;13446;50.926;5.332;2023-04-06T06:47:04;8.60;99.90
25554;DHT22;13446;50.926;5.332;2023-04-06T06:49:29;8.60;99.90
25554;DHT22;13446;50.926;5.332;2023-04-06T06:51:55;8.60;99.90
25554;DHT22;13446;50.926;5.332;2023-04-06T06:54:20;8.80;99.90
25554;DHT22;13446;50.926;5.332;2023-04-06T06:56:46;8.90;99.90
25554;DHT22;13446;50.926;5.332;2023-04-06T06:59:12;8.80;99.90
25554;DHT22;13446;50.926;5.332;2023-04-06T07:01:37;8.90;99.90
25554;DHT22;13446;50.926;5.332;2023-04-06T07:04:03;9.00;99.90
25554;DHT22;13446;50.926;5.332;2023-04-06T07:06:28;9.10;99.90
25554;DHT22;13446;50.926;5.332;2023-04-06T07:08:54;9.20;99.90
25554;DHT22;13446;50.926;5.332;2023-04-06T07:11:20;9.10;99.90
25554;DHT22;13446;50.926;5.332;2023-04-06T07:13:46;9.20;99.90
25554;DHT22;13446;50.926;5.332;2023-04-06T07:16:11;9.30;99.90
25554;DHT22;13446;50.926;5.332;2023-04-06T07:18:37;9.40;99.90
25554;DHT22;13446;50.926;5.332;2023-04-06T07:21:02;9.50;99.90
25554;DHT22;13446;50.926;5.332;2023-04-06T07:23:28;9.70;99.90
25554;DHT22;13446;50.926;5.332;2023-04-06T07:25:54;9.80;99.90
25554;DHT22;13446;50.926;5.332;2023-04-06T07:28:20;9.80;99.90
25554;DHT22;13446;50.926;5.332;2023-04-06T07:30:45;10.00;99.90
25554;DHT22;13446;50.926;5.332;2023-04-06T07:33:11;10.10;99.90
25554;DHT22;13446;50.926;5.332;2023-04-06T07:35:37;10.30;99.90
25554;DHT22;13446;50.926;5.332;2023-04-06T07:38:03;10.60;99.90
25554;DHT22;13446;50.926;5.332;2023-04-06T07:40:29;10.90;99.90
25554;DHT22;13446;50.926;5.332;2023-04-06T07:42:56;10.80;99.90
25554;DHT22;13446;50.926;5.332;2023-04-06T07:45:22;11.00;99.90
25554;DHT22;13446;50.926;5.332;2023-04-06T07:47:48;11.00;99.90
25554;DHT22;13446;50.926;5.332;2023-04-06T07:50:14;11.10;99.90
25554;DHT22;13446;50.926;5.332;2023-04-06T07:52:39;11.10;99.90
25554;DHT22;13446;50.926;5.332;2023-04-06T07:55:05;10.90;99.90
25554;DHT22;13446;50.926;5.332;2023-04-06T07:57:31;10.90;99.90
25554;DHT22;13446;50.926;5.332;2023-04-06T07:59:56;11.00;99.90
25554;DHT22;13446;50.926;5.332;2023-04-06T08:02:22;11.10;99.90
25554;DHT22;13446;50.926;5.332;2023-04-06T08:04:47;11.00;99.90
25554;DHT22;13446;50.926;5.332;2023-04-06T08:07:13;10.90;99.90
25554;DHT22;13446;50.926;5.332;2023-04-06T08:09:38;11.00;99.90
25554;DHT22;13446;50.926;5.332;2023-04-06T08:12:04;11.20;99.90
25554;DHT22;13446;50.926;5.332;2023-04-06T08:14:30;11.30;99.90
25554;DHT22;13446;50.926;5.332;2023-04-06T08:16:55;11.30;99.90
25554;DHT22;13446;50.926;5.332;2023-04-06T08:19:21;11.30;99.90
25554;DHT22;13446;50.926;5.332;2023-04-06T08:21:46;11.40;99.90
25554;DHT22;13446;50.926;5.332;2023-04-06T08:24:13;11.40;99.90
25554;DHT22;13446;50.926;5.332;2023-04-06T08:26:38;11.50;99.90
25554;DHT22;13446;50.926;5.332;2023-04-06T08:29:04;11.60;99.90
25554;DHT22;13446;50.926;5.332;2023-04-06T08:31:35;11.70;99.90
25554;DHT22;13446;50.926;5.332;2023-04-06T08:34:02;11.90;99.90
25554;DHT22;13446;50.926;5.332;2023-04-06T08:36:28;12.00;99.90
25554;DHT22;13446;50.926;5.332;2023-04-06T08:38:54;12.10;99.90
25554;DHT22;13446;50.926;5.332;2023-04-06T08:41:20;12.30;99.90
25554;DHT22;13446;50.926;5.332;2023-04-06T08:43:46;12.20;99.90
25554;DHT22;13446;50.926;5.332;2023-04-06T08:46:12;12.30;99.90
25554;DHT22;13446;50.926;5.332;2023-04-06T08:48:38;12.10;99.90
25554;DHT22;13446;50.926;5.332;2023-04-06T08:51:05;12.20;99.90
25554;DHT22;13446;50.926;5.332;2023-04-06T08:53:31;12.20;99.90
25554;DHT22;13446;50.926;5.332;2023-04-06T08:55:56;12.50;99.90
25554;DHT22;13446;50.926;5.332;2023-04-06T08:58:23;12.60;99.90
25554;DHT22;13446;50.926;5.332;2023-04-06T09:00:49;12.70;99.90
25554;DHT22;13446;50.926;5.332;2023-04-06T09:03:14;12.70;99.90
25554;DHT22;13446;50.926;5.332;2023-04-06T09:05:41;12.90;99.90
25554;DHT22;13446;50.926;5.332;2023-04-06T09:08:07;12.90;99.80
25554;DHT22;13446;50.926;5.332;2023-04-06T09:10:32;13.00;99.90
25554;DHT22;13446;50.926;5.332;2023-04-06T09:13:04;13.00;99.90
25554;DHT22;13446;50.926;5.332;2023-04-06T09:15:30;13.10;99.90
25554;DHT22;13446;50.926;5.332;2023-04-06T09:17:56;13.10;99.90
25554;DHT22;13446;50.926;5.332;2023-04-06T09:20:22;12.90;99.90
25554;DHT22;13446;50.926;5.332;2023-04-06T09:22:48;12.90;99.90
25554;DHT22;13446;50.926;5.332;2023-04-06T09:25:18;12.90;99.90
25554;DHT22;13446;50.926;5.332;2023-04-06T09:27:46;13.00;99.90
25554;DHT22;13446;50.926;5.332;2023-04-06T09:30:12;13.10;99.90
25554;DHT22;13446;50.926;5.332;2023-04-06T09:32:45;13.10;99.90
25554;DHT22;13446;50.926;5.332;2023-04-06T09:35:12;13.10;99.90
25554;DHT22;13446;50.926;5.332;2023-04-06T09:37:37;13.20;99.90
25554;DHT22;13446;50.926;5.332;2023-04-06T09:40:06;12.80;99.90
25554;DHT22;13446;50.926;5.332;2023-04-06T09:42:33;12.90;99.90
25554;DHT22;13446;50.926;5.332;2023-04-06T09:45:00;13.00;99.90
25554;DHT22;13446;50.926;5.332;2023-04-06T09:47:26;12.80;99.90
25554;DHT22;13446;50.926;5.332;2023-04-06T09:49:56;12.50;99.90
25554;DHT22;13446;50.926;5.332;2023-04-06T09:52:24;12.20;99.90
25554;DHT22;13446;50.926;5.332;2023-04-06T09:54:51;11.90;99.90
25554;DHT22;13446;50.926;5.332;2023-04-06T10:00:03;11.90;99.90
25554;DHT22;13446;50.926;5.332;2023-04-06T10:02:56;11.70;99.90
25554;DHT22;13446;50.926;5.332;2023-04-06T10:08:08;11.50;99.90
25554;DHT22;13446;50.926;5.332;2023-04-06T10:10:34;11.50;99.90
25554;DHT22;13446;50.926;5.332;2023-04-06T10:13:00;11.60;99.90
25554;DHT22;13446;50.926;5.332;2023-04-06T10:15:26;11.80;99.90
25554;DHT22;13446;50.926;5.332;2023-04-06T10:17:52;11.80;99.90
25554;DHT22;13446;50.926;5.332;2023-04-06T10:20:24;11.80;99.90
25554;DHT22;13446;50.926;5.332;2023-04-06T10:22:55;11.70;99.90
25554;DHT22;13446;50.926;5.332;2023-04-06T10:25:29;11.60;99.90
25554;DHT22;13446;50.926;5.332;2023-04-06T10:28:07;11.60;99.90
25554;DHT22;13446;50.926;5.332;2023-04-06T10:30:33;11.60;99.90
25554;DHT22;13446;50.926;5.332;2023-04-06T10:32:59;11.50;99.90
25554;DHT22;13446;50.926;5.332;2023-04-06T10:35:35;11.60;99.90
25554;DHT22;13446;50.926;5.332;2023-04-06T10:38:02;11.50;99.90
25554;DHT22;13446;50.926;5.332;2023-04-06T10:40:28;11.50;99.90
25554;DHT22;13446;50.926;5.332;2023-04-06T10:42:55;11.30;99.90
25554;DHT22;13446;50.926;5.332;2023-04-06T10:45:26;11.30;99.90
25554;DHT22;13446;50.926;5.332;2023-04-06T10:47:56;11.30;99.90
25554;DHT22;13446;50.926;5.332;2023-04-06T10:50:22;11.10;99.90
25554;DHT22;13446;50.926;5.332;2023-04-06T10:52:58;11.10;99.90
25554;DHT22;13446;50.926;5.332;2023-04-06T10:55:23;11.10;99.90
25554;DHT22;13446;50.926;5.332;2023-04-06T10:57:51;11.00;99.90
25554;DHT22;13446;50.926;5.332;2023-04-06T11:00:17;10.80;99.90
25554;DHT22;13446;50.926;5.332;2023-04-06T11:02:42;10.80;99.90
25554;DHT22;13446;50.926;5.332;2023-04-06T11:05:08;10.70;99.90
25554;DHT22;13446;50.926;5.332;2023-04-06T11:07:36;10.80;99.90
25554;DHT22;13446;50.926;5.332;2023-04-06T11:10:02;10.60;99.90
25554;DHT22;13446;50.926;5.332;2023-04-06T11:12:28;10.60;99.90
25554;DHT22;13446;50.926;5.332;2023-04-06T11:15:00;10.70;99.90
25554;DHT22;13446;50.926;5.332;2023-04-06T11:17:35;10.90;99.90
25554;DHT22;13446;50.926;5.332;2023-04-06T11:20:02;11.10;99.90
25554;DHT22;13446;50.926;5.332;2023-04-06T11:22:28;11.00;99.90
25554;DHT22;13446;50.926;5.332;2023-04-06T11:25:04;11.00;99.90
25554;DHT22;13446;50.926;5.332;2023-04-06T11:27:30;11.00;99.90
25554;DHT22;13446;50.926;5.332;2023-04-06T11:29:58;10.90;99.90
25554;DHT22;13446;50.926;5.332;2023-04-06T11:32:23;10.80;99.90
25554;DHT22;13446;50.926;5.332;2023-04-06T11:34:49;10.90;99.90
25554;DHT22;13446;50.926;5.332;2023-04-06T11:37:15;10.90;99.90
25554;DHT22;13446;50.926;5.332;2023-04-06T11:39:48;10.90;99.90
25554;DHT22;13446;50.926;5.332;2023-04-06T11:42:24;11.00;99.90
25554;DHT22;13446;50.926;5.332;2023-04-06T11:44:51;11.00;99.90
25554;DHT22;13446;50.926;5.332;2023-04-06T11:47:18;10.90;99.90
25554;DHT22;13446;50.926;5.332;2023-04-06T11:49:44;10.90;99.90
25554;DHT22;13446;50.926;5.332;2023-04-06T11:52:20;11.00;99.90
25554;DHT22;13446;50.926;5.332;2023-04-06T11:54:46;11.00;99.90
25554;DHT22;13446;50.926;5.332;2023-04-06T11:57:12;10.90;99.90
25554;DHT22;13446;50.926;5.332;2023-04-06T11:59:37;10.80;99.90
25554;DHT22;13446;50.926;5.332;2023-04-06T12:02:03;10.80;99.90
25554;DHT22;13446;50.926;5.332;2023-04-06T12:04:29;10.70;99.90
25554;DHT22;13446;50.926;5.332;2023-04-06T12:06:55;10.60;99.90
25554;DHT22;13446;50.926;5.332;2023-04-06T12:09:21;10.60;99.90
25554;DHT22;13446;50.926;5.332;2023-04-06T12:11:47;10.60;99.90
25554;DHT22;13446;50.926;5.332;2023-04-06T12:14:12;10.60;99.90
25554;DHT22;13446;50.926;5.332;2023-04-06T12:16:38;10.60;99.90
25554;DHT22;13446;50.926;5.332;2023-04-06T12:19:04;10.60;99.90
25554;DHT22;13446;50.926;5.332;2023-04-06T12:21:29;10.40;99.90
25554;DHT22;13446;50.926;5.332;2023-04-06T12:23:56;10.40;99.90
25554;DHT22;13446;50.926;5.332;2023-04-06T12:26:22;10.40;99.90
25554;DHT22;13446;50.926;5.332;2023-04-06T12:28:47;10.40;99.90
25554;DHT22;13446;50.926;5.332;2023-04-06T12:31:16;10.40;99.90
25554;DHT22;13446;50.926;5.332;2023-04-06T12:33:42;10.50;99.90
25554;DHT22;13446;50.926;5.332;2023-04-06T12:36:17;10.50;99.90
25554;DHT22;13446;50.926;5.332;2023-04-06T12:38:46;10.50;99.90
25554;DHT22;13446;50.926;5.332;2023-04-06T12:41:12;10.30;99.90
25554;DHT22;13446;50.926;5.332;2023-04-06T12:43:41;10.30;99.90
25554;DHT22;13446;50.926;5.332;2023-04-06T12:46:07;10.30;99.90
25554;DHT22;13446;50.926;5.332;2023-04-06T12:48:32;10.10;99.90
25554;DHT22;13446;50.926;5.332;2023-04-06T12:50:59;10.00;99.90
25554;DHT22;13446;50.926;5.332;2023-04-06T12:53:25;10.00;99.90
25554;DHT22;13446;50.926;5.332;2023-04-06T12:55:51;9.90;99.90
25554;DHT22;13446;50.926;5.332;2023-04-06T12:58:17;9.90;99.90
25554;DHT22;13446;50.926;5.332;2023-04-06T13:00:43;9.90;99.90
25554;DHT22;13446;50.926;5.332;2023-04-06T13:03:09;10.00;99.90
25554;DHT22;13446;50.926;5.332;2023-04-06T13:05:34;9.90;99.90
25554;DHT22;13446;50.926;5.332;2023-04-06T13:08:00;9.80;99.90
25554;DHT22;13446;50.926;5.332;2023-04-06T13:10:25;9.80;99.90
25554;DHT22;13446;50.926;5.332;2023-04-06T13:12:51;9.90;99.90
25554;DHT22;13446;50.926;5.332;2023-04-06T13:15:17;9.90;99.90
25554;DHT22;13446;50.926;5.332;2023-04-06T13:17:43;9.80;99.90
25554;DHT22;13446;50.926;5.332;2023-04-06T13:20:08;9.90;99.90
25554;DHT22;13446;50.926;5.332;2023-04-06T13:22:40;9.90;99.90
25554;DHT22;13446;50.926;5.332;2023-04-06T13:25:06;9.80;99.90
25554;DHT22;13446;50.926;5.332;2023-04-06T13:27:32;9.90;99.90
25554;DHT22;13446;50.926;5.332;2023-04-06T13:29:59;10.10;99.90
25554;DHT22;13446;50.926;5.332;2023-04-06T13:32:26;10.10;99.90
25554;DHT22;13446;50.926;5.332;2023-04-06T13:34:54;10.10;99.90
25554;DHT22;13446;50.926;5.332;2023-04-06T13:37:19;10.20;99.90
25554;DHT22;13446;50.926;5.332;2023-04-06T13:39:45;10.20;99.90
25554;DHT22;13446;50.926;5.332;2023-04-06T13:42:11;10.20;99.90
25554;DHT22;13446;50.926;5.332;2023-04-06T13:44:36;10.20;99.90
25554;DHT22;13446;50.926;5.332;2023-04-06T13:47:02;10.20;99.90
25554;DHT22;13446;50.926;5.332;2023-04-06T13:49:27;10.10;99.90
25554;DHT22;13446;50.926;5.332;2023-04-06T13:51:53;10.20;99.90
25554;DHT22;13446;50.926;5.332;2023-04-06T13:54:19;10.20;99.90
25554;DHT22;13446;50.926;5.332;2023-04-06T13:56:44;10.30;99.90
25554;DHT22;13446;50.926;5.332;2023-04-06T13:59:10;10.40;99.90
25554;DHT22;13446;50.926;5.332;2023-04-06T14:01:36;10.40;99.90
25554;DHT22;13446;50.926;5.332;2023-04-06T14:04:02;10.40;99.90
25554;DHT22;13446;50.926;5.332;2023-04-06T14:06:28;10.30;99.90
25554;DHT22;13446;50.926;5.332;2023-04-06T14:08:53;10.20;99.90
25554;DHT22;13446;50.926;5.332;2023-04-06T14:11:19;10.20;99.90
25554;DHT22;13446;50.926;5.332;2023-04-06T14:13:45;10.10;99.90
25554;DHT22;13446;50.926;5.332;2023-04-06T14:16:11;10.20;99.90
25554;DHT22;13446;50.926;5.332;2023-04-06T14:18:40;10.20;99.90
25554;DHT22;13446;50.926;5.332;2023-04-06T14:21:05;10.30;99.90
25554;DHT22;13446;50.926;5.332;2023-04-06T14:23:31;10.30;99.90
25554;DHT22;13446;50.926;5.332;2023-04-06T14:26:02;10.40;99.90
25554;DHT22;13446;50.926;5.332;2023-04-06T14:28:28;10.40;99.90
25554;DHT22;13446;50.926;5.332;2023-04-06T14:30:54;10.50;99.90
25554;DHT22;13446;50.926;5.332;2023-04-06T14:33:19;10.60;99.90
25554;DHT22;13446;50.926;5.332;2023-04-06T14:35:45;10.50;99.90
25554;DHT22;13446;50.926;5.332;2023-04-06T14:38:10;10.30;99.90
25554;DHT22;13446;50.926;5.332;2023-04-06T14:40:36;10.20;99.90
25554;DHT22;13446;50.926;5.332;2023-04-06T14:43:02;10.20;99.90
25554;DHT22;13446;50.926;5.332;2023-04-06T14:45:29;10.20;99.90
25554;DHT22;13446;50.926;5.332;2023-04-06T14:47:54;10.10;99.90
25554;DHT22;13446;50.926;5.332;2023-04-06T14:50:20;10.20;99.90
25554;DHT22;13446;50.926;5.332;2023-04-06T14:52:45;10.10;99.90
25554;DHT22;13446;50.926;5.332;2023-04-06T14:55:12;10.10;99.90
25554;DHT22;13446;50.926;5.332;2023-04-06T14:57:37;10.00;99.90
25554;DHT22;13446;50.926;5.332;2023-04-06T15:00:03;9.90;99.90
25554;DHT22;13446;50.926;5.332;2023-04-06T15:02:29;9.80;99.90
25554;DHT22;13446;50.926;5.332;2023-04-06T15:04:56;9.90;99.90
25554;DHT22;13446;50.926;5.332;2023-04-06T15:07:22;9.90;99.90
25554;DHT22;13446;50.926;5.332;2023-04-06T15:09:47;10.00;99.90
25554;DHT22;13446;50.926;5.332;2023-04-06T15:12:13;10.00;99.90
25554;DHT22;13446;50.926;5.332;2023-04-06T15:14:43;10.10;99.90
25554;DHT22;13446;50.926;5.332;2023-04-06T15:17:09;9.90;99.90
25554;DHT22;13446;50.926;5.332;2023-04-06T15:19:35;9.90;99.90
25554;DHT22;13446;50.926;5.332;2023-04-06T15:22:01;9.90;99.90
25554;DHT22;13446;50.926;5.332;2023-04-06T15:24:27;10.00;99.90
25554;DHT22;13446;50.926;5.332;2023-04-06T15:26:52;9.90;99.90
25554;DHT22;13446;50.926;5.332;2023-04-06T15:29:18;9.90;99.90
25554;DHT22;13446;50.926;5.332;2023-04-06T15:31:43;9.80;99.90
25554;DHT22;13446;50.926;5.332;2023-04-06T15:34:09;9.90;99.90
25554;DHT22;13446;50.926;5.332;2023-04-06T15:36:34;9.90;99.90
25554;DHT22;13446;50.926;5.332;2023-04-06T15:39:00;9.90;99.90